createdAt,value
2023-05-09T00:00:25.133Z,11.58
2023-05-09T00:02:51.691Z,11.58
2023-05-09T00:05:18.534Z,11.57
2023-05-09T00:07:45.081Z,11.58
2023-05-09T00:10:11.620Z,11.54
2023-05-09T00:12:38.283Z,11.58
2023-05-09T00:15:08.133Z,11.55
2023-05-09T00:17:36.441Z,11.57
2023-05-09T00:20:05.183Z,11.54
2023-05-09T00:22:31.814Z,11.54
2023-05-09T00:24:58.469Z,11.51
2023-05-09T00:27:25.012Z,11.51
2023-05-09T00:29:51.534Z,11.43
2023-05-09T00:32:18.184Z,11.39
2023-05-09T00:34:44.664Z,11.37
2023-05-09T00:37:11.068Z,11.40
2023-05-09T00:39:37.494Z,11.40
2023-05-09T00:42:04.710Z,11.40
2023-05-09T00:44:31.082Z,11.41
2023-05-09T00:46:57.874Z,11.39
2023-05-09T00:49:24.387Z,11.39
2023-05-09T00:51:51.560Z,11.36
2023-05-09T00:54:17.967Z,11.32
2023-05-09T00:56:45.132Z,11.31
2023-05-09T00:59:11.720Z,11.33
2023-05-09T01:01:38.452Z,11.33
2023-05-09T01:04:05.412Z,11.28
2023-05-09T01:07:16.048Z,11.30
2023-05-09T01:10:26.500Z,11.28
2023-05-09T01:13:00.235Z,11.22
2023-05-09T01:15:39.124Z,11.23
2023-05-09T01:18:33.557Z,11.25
2023-05-09T01:21:08.793Z,11.22
2023-05-09T01:23:55.101Z,11.18
2023-05-09T01:26:38.401Z,11.18
2023-05-09T01:29:29.649Z,11.14
2023-05-09T01:31:58.235Z,11.12
2023-05-09T01:34:28.446Z,11.13
2023-05-09T01:36:59.389Z,11.08
2023-05-09T01:39:27.031Z,11.08
2023-05-09T01:41:59.845Z,11.05
2023-05-09T01:44:32.480Z,11.05
2023-05-09T01:47:01.224Z,11.03
2023-05-09T01:49:31.029Z,11.00
2023-05-09T01:51:59.254Z,10.98
2023-05-09T01:54:27.700Z,10.92
2023-05-09T01:56:55.538Z,10.94
2023-05-09T01:59:23.648Z,10.93
2023-05-09T02:01:50.976Z,10.94
2023-05-09T02:04:18.691Z,10.92
2023-05-09T02:06:49.567Z,10.88
2023-05-09T02:09:16.427Z,10.89
2023-05-09T02:11:42.971Z,10.91
2023-05-09T02:14:09.472Z,10.83
2023-05-09T02:16:36.228Z,10.85
2023-05-09T02:19:02.749Z,10.86
2023-05-09T02:21:29.301Z,10.85
2023-05-09T02:23:55.903Z,10.88
2023-05-09T02:26:22.683Z,10.83
2023-05-09T02:28:50.352Z,10.81
2023-05-09T02:31:20.100Z,10.81
2023-05-09T02:33:48.275Z,10.80
2023-05-09T02:36:16.566Z,10.76
2023-05-09T02:38:43.873Z,10.79
2023-05-09T02:41:14.492Z,10.74
2023-05-09T02:43:42.000Z,10.76
2023-05-09T02:46:10.046Z,10.75
2023-05-09T02:48:37.376Z,10.75
2023-05-09T02:51:04.376Z,10.70
2023-05-09T02:53:31.165Z,10.72
2023-05-09T02:55:58.489Z,10.70
2023-05-09T02:58:25.217Z,10.71
2023-05-09T03:00:51.688Z,10.70
2023-05-09T03:03:19.222Z,10.67
2023-05-09T03:05:46.314Z,10.63
2023-05-09T03:08:12.858Z,10.60
2023-05-09T03:10:39.378Z,10.60
2023-05-09T03:13:05.860Z,10.54
2023-05-09T03:15:32.355Z,10.58
2023-05-09T03:17:58.772Z,10.54
2023-05-09T03:20:26.561Z,10.55
2023-05-09T03:22:53.110Z,10.50
2023-05-09T03:25:19.689Z,10.51
2023-05-09T03:27:46.057Z,10.50
2023-05-09T03:30:13.083Z,10.50
2023-05-09T03:32:39.828Z,10.48
2023-05-09T03:35:06.864Z,10.46
2023-05-09T03:37:33.440Z,10.48
2023-05-09T03:39:59.926Z,10.48
2023-05-09T03:42:26.423Z,10.46
2023-05-09T03:44:52.940Z,10.43
2023-05-09T03:47:19.449Z,10.43
2023-05-09T03:49:46.308Z,10.44
2023-05-09T03:52:12.853Z,10.42
2023-05-09T03:54:39.376Z,10.41
2023-05-09T03:57:06.961Z,10.41
2023-05-09T03:59:33.401Z,10.42
2023-05-09T04:01:59.874Z,10.38
2023-05-09T04:04:27.345Z,10.38
2023-05-09T04:06:53.831Z,10.40
2023-05-09T04:09:20.339Z,10.42
2023-05-09T04:11:46.805Z,10.43
2023-05-09T04:14:13.175Z,10.45
2023-05-09T04:16:39.720Z,10.46
2023-05-09T04:19:07.189Z,10.50
2023-05-09T04:21:33.749Z,10.52
2023-05-09T04:24:00.204Z,10.55
2023-05-09T04:26:26.789Z,10.58
2023-05-09T04:28:53.412Z,10.61
2023-05-09T04:31:20.053Z,10.63
2023-05-09T04:33:46.675Z,10.65
2023-05-09T04:36:13.046Z,10.65
2023-05-09T04:38:39.490Z,10.68
2023-05-09T04:41:05.978Z,10.70
2023-05-09T04:43:32.710Z,10.74
2023-05-09T04:45:59.154Z,10.72
2023-05-09T04:48:25.552Z,10.73
2023-05-09T04:50:52.049Z,10.74
2023-05-09T04:53:18.453Z,10.74
2023-05-09T04:55:44.858Z,10.81
2023-05-09T04:58:11.213Z,10.82
2023-05-09T05:00:37.840Z,10.84
2023-05-09T05:03:04.533Z,10.88
2023-05-09T05:05:31.963Z,10.91
2023-05-09T05:08:00.195Z,10.91
2023-05-09T05:10:26.613Z,10.92
2023-05-09T05:12:53.054Z,10.93
2023-05-09T05:15:19.559Z,10.95
2023-05-09T05:17:46.150Z,11.02
2023-05-09T05:20:12.872Z,11.06
2023-05-09T05:22:39.281Z,11.10
2023-05-09T05:25:06.432Z,11.16
2023-05-09T05:27:32.975Z,11.20
2023-05-09T05:29:59.535Z,11.27
2023-05-09T05:32:26.095Z,11.36
2023-05-09T05:34:52.704Z,11.37
2023-05-09T05:37:19.350Z,11.42
2023-05-09T05:39:45.784Z,11.49
2023-05-09T05:42:12.164Z,11.56
2023-05-09T05:44:38.584Z,11.62
2023-05-09T05:47:05.246Z,11.68
2023-05-09T05:49:31.643Z,11.71
2023-05-09T05:51:58.090Z,11.69
2023-05-09T05:54:24.546Z,11.83
2023-05-09T05:56:50.942Z,11.89
2023-05-09T05:59:17.492Z,11.96
2023-05-09T06:01:43.924Z,12.16
2023-05-09T06:04:10.619Z,12.35
2023-05-09T06:06:38.871Z,12.43
2023-05-09T06:09:05.383Z,12.53
2023-05-09T06:11:31.953Z,12.69
2023-05-09T06:13:58.301Z,12.76
2023-05-09T06:16:24.860Z,12.83
2023-05-09T06:18:52.658Z,12.90
2023-05-09T06:21:20.579Z,12.84
2023-05-09T06:24:05.115Z,12.95
2023-05-09T06:26:33.487Z,13.03
2023-05-09T06:28:59.952Z,13.19
2023-05-09T06:31:26.347Z,13.41
2023-05-09T06:33:53.432Z,13.28
2023-05-09T06:36:21.026Z,13.39
2023-05-09T06:38:47.504Z,13.44
2023-05-09T06:41:14.088Z,13.49
2023-05-09T06:43:40.712Z,13.47
2023-05-09T06:46:07.415Z,13.55
2023-05-09T06:48:33.908Z,13.69
2023-05-09T06:51:00.795Z,13.79
2023-05-09T06:53:27.351Z,13.89
2023-05-09T06:55:53.972Z,13.91
2023-05-09T06:58:20.407Z,13.96
2023-05-09T07:00:47.695Z,14.14
2023-05-09T07:03:14.213Z,14.09
2023-05-09T07:05:40.623Z,14.09
2023-05-09T07:08:07.489Z,14.19
2023-05-09T07:10:34.108Z,14.23
2023-05-09T07:13:00.624Z,14.35
2023-05-09T07:15:40.372Z,14.43
2023-05-09T07:18:08.598Z,14.52
2023-05-09T07:20:35.232Z,14.62
2023-05-09T07:23:03.873Z,14.81
2023-05-09T07:25:30.699Z,14.93
2023-05-09T07:27:57.270Z,14.92
2023-05-09T07:30:24.063Z,14.96
2023-05-09T07:32:51.760Z,15.09
2023-05-09T07:35:19.286Z,15.11
2023-05-09T07:37:45.726Z,15.21
2023-05-09T07:40:12.745Z,15.14
2023-05-09T07:42:39.703Z,15.16
2023-05-09T07:45:06.914Z,15.12
2023-05-09T07:47:33.635Z,15.24
2023-05-09T07:50:00.370Z,15.25
2023-05-09T07:52:27.018Z,15.12
2023-05-09T07:54:54.926Z,15.24
2023-05-09T07:57:21.525Z,15.33
2023-05-09T07:59:48.276Z,15.22
2023-05-09T08:02:14.720Z,15.34
2023-05-09T08:04:41.468Z,15.48
2023-05-09T08:07:08.936Z,15.50
2023-05-09T08:09:36.532Z,15.53
2023-05-09T08:12:03.078Z,15.70
2023-05-09T08:14:29.778Z,15.84
2023-05-09T08:16:56.315Z,15.92
2023-05-09T08:19:25.958Z,15.89
2023-05-09T08:21:53.295Z,15.80
2023-05-09T08:24:20.215Z,16.02
2023-05-09T08:26:46.836Z,16.21
2023-05-09T08:29:13.380Z,16.26
2023-05-09T08:31:40.117Z,16.37
2023-05-09T08:34:06.688Z,16.42
2023-05-09T08:36:33.752Z,16.43
2023-05-09T08:39:00.406Z,16.48
2023-05-09T08:41:29.718Z,16.48
2023-05-09T08:43:56.309Z,16.68
2023-05-09T08:46:29.585Z,16.55
2023-05-09T08:48:57.530Z,16.77
2023-05-09T08:51:24.560Z,16.80
2023-05-09T08:53:51.968Z,16.92
2023-05-09T08:56:18.844Z,16.94
2023-05-09T08:58:45.472Z,17.03
2023-05-09T09:01:13.987Z,17.19
2023-05-09T09:03:47.522Z,17.15
2023-05-09T09:06:14.352Z,17.19
2023-05-09T09:08:42.216Z,17.24
2023-05-09T09:11:13.263Z,17.40
2023-05-09T09:13:41.691Z,17.32
2023-05-09T09:16:20.000Z,17.38
2023-05-09T09:18:47.460Z,17.41
2023-05-09T09:21:16.904Z,17.47
2023-05-09T09:23:44.204Z,17.30
2023-05-09T09:26:10.723Z,17.38
2023-05-09T09:28:37.186Z,17.40
2023-05-09T09:31:19.270Z,17.37
2023-05-09T09:33:45.904Z,17.45
2023-05-09T09:36:12.442Z,17.63
2023-05-09T09:38:45.757Z,17.55
2023-05-09T09:41:12.835Z,17.68
2023-05-09T09:43:44.983Z,17.71
2023-05-09T09:46:13.889Z,17.75
2023-05-09T09:48:40.618Z,17.71
2023-05-09T09:51:11.353Z,17.81
2023-05-09T09:53:41.777Z,17.71
2023-05-09T09:56:08.533Z,17.75
2023-05-09T09:58:35.582Z,17.86
2023-05-09T10:01:10.537Z,17.88
2023-05-09T10:03:42.357Z,17.91
2023-05-09T10:06:13.426Z,17.84
2023-05-09T10:08:40.787Z,17.95
2023-05-09T10:11:07.421Z,18.00
2023-05-09T10:13:36.404Z,18.15
2023-05-09T10:18:31.649Z,18.20
2023-05-09T10:21:03.882Z,18.16
2023-05-09T10:23:31.799Z,18.14
2023-05-09T10:26:18.585Z,18.14
2023-05-09T10:28:47.933Z,18.15
2023-05-09T10:31:28.530Z,18.23
2023-05-09T10:33:55.995Z,18.28
2023-05-09T10:36:25.947Z,18.18
2023-05-09T10:38:55.246Z,18.25
2023-05-09T10:41:22.703Z,18.21
2023-05-09T10:43:49.466Z,18.36
2023-05-09T10:46:16.607Z,18.45
2023-05-09T10:48:43.954Z,18.69
2023-05-09T10:51:12.049Z,18.57
2023-05-09T10:53:43.533Z,18.62
2023-05-09T10:56:22.720Z,18.65
2023-05-09T10:58:49.191Z,18.75
2023-05-09T11:01:37.025Z,18.67
2023-05-09T11:04:12.679Z,18.70
2023-05-09T11:06:44.848Z,18.65
2023-05-09T11:09:35.310Z,18.77
2023-05-09T11:12:10.997Z,18.80
2023-05-09T11:14:37.826Z,18.79
2023-05-09T11:17:06.613Z,18.74
2023-05-09T11:19:46.656Z,18.77
2023-05-09T11:22:20.249Z,18.99
2023-05-09T11:24:48.537Z,19.13
2023-05-09T11:27:25.108Z,19.23
2023-05-09T11:29:53.779Z,19.18
2023-05-09T11:32:21.697Z,19.13
2023-05-09T11:34:49.626Z,19.09
2023-05-09T11:37:18.054Z,19.12
2023-05-09T11:40:04.618Z,19.31
2023-05-09T11:42:32.598Z,19.32
2023-05-09T11:44:59.332Z,19.41
2023-05-09T11:47:27.348Z,19.41
2023-05-09T11:49:53.846Z,19.52
2023-05-09T11:52:21.719Z,19.72
2023-05-09T11:54:49.527Z,19.63
2023-05-09T11:57:19.376Z,19.78
2023-05-09T11:59:46.274Z,19.85
2023-05-09T12:02:13.445Z,19.75
2023-05-09T12:04:40.102Z,19.91
2023-05-09T12:07:07.042Z,20.09
2023-05-09T12:09:34.713Z,20.12
2023-05-09T12:12:01.516Z,20.05
2023-05-09T12:14:29.851Z,20.12
2023-05-09T12:16:56.629Z,20.16
2023-05-09T12:19:25.280Z,20.18
2023-05-09T12:22:05.416Z,20.15
2023-05-09T12:24:35.827Z,20.22
2023-05-09T12:27:02.345Z,20.33
2023-05-09T12:29:30.641Z,20.38
2023-05-09T12:31:58.232Z,20.56
2023-05-09T12:34:25.099Z,20.81
2023-05-09T12:36:51.978Z,20.94
2023-05-09T12:39:19.382Z,20.82
2023-05-09T12:41:57.459Z,20.76
2023-05-09T12:44:29.422Z,20.72
2023-05-09T12:47:03.956Z,20.53
2023-05-09T12:49:31.866Z,20.34
2023-05-09T12:52:02.992Z,20.46
2023-05-09T12:54:31.073Z,20.57
2023-05-09T12:56:58.567Z,20.62
2023-05-09T12:59:29.001Z,20.65
2023-05-09T13:02:00.259Z,20.80
2023-05-09T13:04:28.394Z,20.75
2023-05-09T13:06:57.420Z,20.84
2023-05-09T13:09:25.319Z,20.75
2023-05-09T13:11:52.307Z,20.84
2023-05-09T13:14:21.651Z,20.89
2023-05-09T13:16:48.306Z,20.97
2023-05-09T13:19:14.952Z,20.92
2023-05-09T13:21:41.346Z,20.90
2023-05-09T13:24:08.018Z,20.98
2023-05-09T13:26:34.567Z,20.95
2023-05-09T13:29:01.096Z,20.97
2023-05-09T13:31:27.768Z,20.98
2023-05-09T13:33:54.502Z,20.84
2023-05-09T13:36:21.245Z,20.92
2023-05-09T13:38:48.072Z,21.07
2023-05-09T13:41:20.024Z,21.18
2023-05-09T13:43:46.905Z,21.27
2023-05-09T13:46:13.700Z,21.14
2023-05-09T13:48:40.777Z,21.21
2023-05-09T13:51:07.834Z,21.19
2023-05-09T13:53:38.074Z,21.12
2023-05-09T13:56:10.652Z,21.01
2023-05-09T13:58:37.484Z,21.11
2023-05-09T14:01:04.232Z,21.19
2023-05-09T14:03:31.721Z,21.08
2023-05-09T14:05:58.779Z,21.17
2023-05-09T14:08:25.316Z,21.32
2023-05-09T14:10:51.845Z,21.51
2023-05-09T14:13:18.566Z,21.53
2023-05-09T14:15:45.315Z,21.38
2023-05-09T14:18:15.924Z,21.25
2023-05-09T14:20:44.388Z,21.41
2023-05-09T14:23:11.103Z,21.57
2023-05-09T14:25:37.943Z,21.58
2023-05-09T14:28:06.939Z,21.41
2023-05-09T14:30:34.310Z,21.36
2023-05-09T14:33:00.865Z,21.26
2023-05-09T14:35:27.571Z,20.99
2023-05-09T14:37:54.171Z,21.15
2023-05-09T14:40:20.825Z,21.30
2023-05-09T14:42:48.417Z,21.38
2023-05-09T14:45:15.343Z,21.31
2023-05-09T14:47:41.879Z,21.26
2023-05-09T14:50:11.309Z,21.33
2023-05-09T14:52:37.791Z,21.44
2023-05-09T14:55:06.102Z,21.31
2023-05-09T14:57:33.195Z,21.26
2023-05-09T15:00:08.832Z,21.07
2023-05-09T15:02:43.682Z,20.92
2023-05-09T15:05:10.273Z,20.96
2023-05-09T15:07:36.815Z,20.93
2023-05-09T15:10:03.462Z,20.99
2023-05-09T15:12:29.995Z,20.97
2023-05-09T15:15:11.588Z,20.86
2023-05-09T15:17:38.080Z,20.90
2023-05-09T15:20:05.651Z,20.83
2023-05-09T15:22:33.766Z,20.82
2023-05-09T15:25:05.399Z,20.87
2023-05-09T15:27:32.728Z,20.72
2023-05-09T15:29:59.139Z,20.68
2023-05-09T15:32:25.694Z,20.62
2023-05-09T15:34:52.352Z,20.54
2023-05-09T15:37:18.866Z,20.51
2023-05-09T15:39:45.527Z,20.46
2023-05-09T15:42:13.159Z,20.46
2023-05-09T15:44:40.738Z,20.36
2023-05-09T15:47:07.831Z,20.28
2023-05-09T15:49:34.619Z,20.33
2023-05-09T15:52:05.326Z,20.44
2023-05-09T15:54:32.229Z,20.37
2023-05-09T15:56:59.294Z,20.35
2023-05-09T15:59:26.283Z,20.24
2023-05-09T16:01:52.932Z,20.22
2023-05-09T16:04:19.638Z,20.13
2023-05-09T16:06:47.185Z,19.95
2023-05-09T16:09:13.745Z,19.94
2023-05-09T16:11:41.178Z,19.88
2023-05-09T16:14:11.323Z,19.78
2023-05-09T16:16:38.729Z,19.71
2023-05-09T16:19:06.242Z,19.63
2023-05-09T16:21:33.160Z,19.59
2023-05-09T16:24:03.297Z,19.65
2023-05-09T16:26:29.813Z,19.60
2023-05-09T16:28:56.385Z,19.43
2023-05-09T16:31:26.337Z,19.38
2023-05-09T16:33:55.812Z,19.22
2023-05-09T16:36:22.316Z,19.20
2023-05-09T16:38:48.855Z,19.16
2023-05-09T16:41:15.971Z,19.10
2023-05-09T16:43:42.722Z,19.04
2023-05-09T16:46:09.456Z,19.03
2023-05-09T16:48:36.022Z,18.91
2023-05-09T16:51:02.457Z,18.88
2023-05-09T16:53:29.184Z,18.72
2023-05-09T16:55:55.745Z,18.76
2023-05-09T16:58:22.308Z,18.67
2023-05-09T17:00:50.388Z,18.71
2023-05-09T17:03:16.947Z,18.62
2023-05-09T17:05:43.407Z,18.65
2023-05-09T17:08:09.930Z,18.62
2023-05-09T17:10:37.790Z,18.52
2023-05-09T17:13:08.427Z,18.53
2023-05-09T17:15:34.935Z,18.42
2023-05-09T17:18:01.929Z,18.38
2023-05-09T17:20:28.868Z,18.40
2023-05-09T17:22:56.928Z,18.29
2023-05-09T17:25:23.619Z,18.23
2023-05-09T17:27:50.132Z,18.08
2023-05-09T17:30:16.936Z,18.09
2023-05-09T17:32:44.730Z,18.07
2023-05-09T17:35:12.160Z,18.01
2023-05-09T17:37:39.163Z,17.86
2023-05-09T17:40:07.901Z,17.83
2023-05-09T17:42:34.531Z,17.85
2023-05-09T17:45:01.262Z,17.73
2023-05-09T17:47:28.735Z,17.68
2023-05-09T17:49:55.318Z,17.62
2023-05-09T17:52:22.104Z,17.56
2023-05-09T17:54:48.722Z,17.56
2023-05-09T17:57:15.329Z,17.48
2023-05-09T17:59:42.071Z,17.41
2023-05-09T18:02:08.720Z,17.40
2023-05-09T18:04:35.157Z,17.36
2023-05-09T18:07:01.649Z,17.38
2023-05-09T18:09:28.568Z,17.30
2023-05-09T18:11:55.129Z,17.15
2023-05-09T18:14:21.576Z,17.09
2023-05-09T18:16:48.078Z,17.04
2023-05-09T18:19:14.507Z,17.02
2023-05-09T18:21:40.973Z,16.97
2023-05-09T18:24:09.131Z,16.99
2023-05-09T18:26:35.848Z,16.88
2023-05-09T18:29:02.357Z,16.80
2023-05-09T18:31:29.430Z,16.77
2023-05-09T18:33:56.269Z,16.71
2023-05-09T18:36:23.108Z,16.64
2023-05-09T18:38:49.573Z,16.56
2023-05-09T18:41:17.233Z,16.56
2023-05-09T18:43:46.545Z,16.53
2023-05-09T18:46:17.752Z,16.49
2023-05-09T18:48:45.399Z,16.48
2023-05-09T18:51:12.233Z,16.44
2023-05-09T18:53:38.910Z,16.43
2023-05-09T18:56:05.603Z,16.40
2023-05-09T18:58:32.414Z,16.35
2023-05-09T19:00:59.163Z,16.26
2023-05-09T19:03:27.094Z,16.24
2023-05-09T19:05:53.850Z,16.24
2023-05-09T19:08:20.390Z,16.19
2023-05-09T19:10:46.904Z,16.14
2023-05-09T19:13:16.053Z,16.10
2023-05-09T19:15:42.989Z,16.04
2023-05-09T19:18:09.691Z,16.00
2023-05-09T19:20:36.858Z,15.91
2023-05-09T19:23:03.460Z,15.83
2023-05-09T19:25:33.563Z,15.72
2023-05-09T19:28:00.186Z,15.63
2023-05-09T19:30:27.071Z,15.62
2023-05-09T19:32:53.525Z,15.54
2023-05-09T19:35:20.551Z,15.51
2023-05-09T19:37:47.004Z,15.49
2023-05-09T19:40:13.838Z,15.37
2023-05-09T19:42:41.802Z,15.27
2023-05-09T19:45:08.876Z,15.15
2023-05-09T19:47:35.560Z,15.11
2023-05-09T19:50:02.250Z,15.01
2023-05-09T19:52:29.590Z,14.97
2023-05-09T19:54:56.065Z,14.90
2023-05-09T19:57:22.837Z,14.87
2023-05-09T19:59:49.342Z,14.81
2023-05-09T20:02:15.828Z,14.75
2023-05-09T20:04:49.445Z,14.68
2023-05-09T20:07:16.837Z,14.63
2023-05-09T20:09:43.496Z,14.63
2023-05-09T20:12:10.170Z,14.63
2023-05-09T20:14:36.932Z,14.63
2023-05-09T20:17:05.274Z,14.66
2023-05-09T20:19:33.176Z,14.67
2023-05-09T20:22:01.708Z,14.68
2023-05-09T20:24:28.584Z,14.69
2023-05-09T20:26:55.199Z,14.68
2023-05-09T20:29:21.883Z,14.66
2023-05-09T20:31:48.389Z,14.67
2023-05-09T20:34:17.763Z,14.65
2023-05-09T20:36:50.703Z,14.65
2023-05-09T20:39:18.119Z,14.59
2023-05-09T20:41:45.520Z,14.56
2023-05-09T20:44:11.966Z,14.49
2023-05-09T20:46:40.142Z,14.47
2023-05-09T20:49:07.540Z,14.43
2023-05-09T20:51:34.250Z,14.44
2023-05-09T20:54:01.107Z,14.38
2023-05-09T20:56:28.820Z,14.34
2023-05-09T20:58:56.288Z,14.33
2023-05-09T21:01:22.873Z,14.27
2023-05-09T21:03:49.346Z,14.27
2023-05-09T21:06:15.755Z,14.21
2023-05-09T21:08:42.367Z,14.22
2023-05-09T21:11:09.036Z,14.16
2023-05-09T21:13:35.497Z,14.17
2023-05-09T21:16:02.008Z,14.07
2023-05-09T21:18:28.683Z,14.04
2023-05-09T21:20:55.138Z,13.97
2023-05-09T21:23:21.745Z,13.99
2023-05-09T21:25:48.213Z,13.93
2023-05-09T21:28:15.546Z,13.92
2023-05-09T21:30:42.094Z,13.91
2023-05-09T21:33:08.846Z,13.89
2023-05-09T21:35:36.069Z,13.87
2023-05-09T21:38:02.666Z,13.88
2023-05-09T21:40:29.069Z,13.88
2023-05-09T21:42:55.839Z,13.89
2023-05-09T21:45:22.487Z,13.84
2023-05-09T21:47:48.979Z,13.81
2023-05-09T21:50:15.705Z,13.80
2023-05-09T21:52:42.324Z,13.82
2023-05-09T21:55:09.164Z,13.85
2023-05-09T21:57:35.610Z,13.82
2023-05-09T22:00:05.056Z,13.85
2023-05-09T22:02:32.526Z,13.81
2023-05-09T22:04:59.100Z,13.77
2023-05-09T22:07:25.615Z,13.76
2023-05-09T22:09:52.949Z,13.74
2023-05-09T22:12:22.436Z,13.75
2023-05-09T22:14:56.330Z,13.70
2023-05-09T22:17:24.137Z,13.73
2023-05-09T22:19:50.660Z,13.71
2023-05-09T22:22:17.603Z,13.72
2023-05-09T22:24:43.996Z,13.69
2023-05-09T22:27:10.983Z,13.68
2023-05-09T22:29:37.427Z,13.66
2023-05-09T22:32:04.693Z,13.61
2023-05-09T22:34:31.324Z,13.58
2023-05-09T22:36:57.733Z,13.57
2023-05-09T22:39:24.299Z,13.58
2023-05-09T22:41:50.941Z,13.58
2023-05-09T22:44:17.449Z,13.55
2023-05-09T22:46:43.884Z,13.49
2023-05-09T22:49:10.419Z,13.47
2023-05-09T22:51:37.010Z,13.44
2023-05-09T22:54:03.769Z,13.43
2023-05-09T22:56:30.203Z,13.35
2023-05-09T22:58:56.631Z,13.34
2023-05-09T23:01:23.133Z,13.34
2023-05-09T23:03:49.619Z,13.30
2023-05-09T23:06:16.066Z,13.25
2023-05-09T23:08:42.615Z,13.29
2023-05-09T23:11:09.036Z,13.32
2023-05-09T23:13:35.646Z,13.26
2023-05-09T23:16:02.736Z,13.21
2023-05-09T23:18:29.393Z,13.23
2023-05-09T23:20:55.831Z,13.18
2023-05-09T23:23:22.352Z,13.16
2023-05-09T23:25:48.820Z,13.12
2023-05-09T23:28:15.453Z,13.10
2023-05-09T23:30:41.883Z,13.10
2023-05-09T23:33:08.260Z,13.06
2023-05-09T23:35:34.621Z,13.01
2023-05-09T23:38:01.163Z,13.09
2023-05-09T23:40:27.683Z,13.08
2023-05-09T23:42:54.244Z,13.10
2023-05-09T23:45:20.844Z,13.07
2023-05-09T23:47:47.322Z,13.05
2023-05-09T23:50:14.255Z,13.00
2023-05-09T23:52:41.785Z,13.02
2023-05-09T23:55:09.028Z,13.01
2023-05-09T23:57:35.704Z,13.00
